Monkton, Vermont
Current Conditions -  °F | °C
As of 5:54 AM on Thursday 23 Oct 2014 (Local Time) from KBTV Reporting Station
Overcast Overcast  
Wind Chill: 38°   Ceiling: 3200
Heat Index: 45°   Visibility: 10mi
Dew Point: 36°   Wind: 16mph
Humidity: 71%   Direction: 340°NNW
Pressure: 30"   Gusts: 23mph
Location:  44.24°N, 73.15°W
Report Text: KBTV 230954Z 34014G20KT 10SM OVC032 07/02 A3000 RMK AO2 SLP161 T00720022
Loading
Personal Weather Stations






























Interactive Weather Map
Tropical Storm Tracking
New forecast layout! Learn more

10-Day Weather Forecast

Advertisements
Track Severe Weather on mobile